Terminal Aerodrome Forecast
Issued by NWS Mt. Holly, NJ

Home | Current Version | Previous Version | Text Only | Print | Product List | Glossary On
Versions: 1 2 3 4 5 6 7 8 9 10 11 12 13 14 15 16 17 18 19 20 21 22 23 24 25 26 27 28 29 30 31 32 33 34 35 36 37 38 39 40 41 42 43 44 45 46 47 48
000
FTUS41 KPHI 301742
TAFTTN
TAF
KTTN 301742Z 3018/3118 23008KT P6SM VCSH SCT020 BKN040
     FM302300 30007KT P6SM BKN080
     FM310300 31005KT P6SM BKN025
     FM310900 02005KT P6SM BKN015
     FM311200 07007KT P6SM BKN015=

USA.gov is the U.S. government's official web portal to all federal, state and local government web resources and services.